ウィーン の空港の天気 - METARとTAF

ウィーン国際空港 ( LOWW / VIE ) - オーストリア ウィーン
飛行場実況気象(Metar)
観測時間07/28 14:20 CEST (07/28 12:20 UTC)
風向・風速西 9m/s
視程10km以上
天気現象
なし
気温26℃
湿度42%
気圧1012hPa
METARLOWW 281220Z 28018KT CAVOK 26/12 Q1012 NOSIG
過去の天気等 Google飛行場航空写真 Wunderground天気予報

過去48時間のMETAR

飛行場予報(TAF)
発表時間: 7/28 13:15 CEST (7/28 11:15 UTC)
予報対象時間: 28日14時 CEST ~ 29日20時 CEST
風向・風速西北西 6m/s
視程10km以上
なし
28日14時 CEST ~ 28日20時 CEST に一時的に
風向・風速西北西 10m/s 瞬間風速 15m/s
28日20時 CEST ~ 28日22時 CEST に徐々に
風向・風速西北西 3m/s
29日9時 CEST ~ 29日11時 CEST に徐々に
風向・風速東南東 3m/s
TAF LOWW 281115Z 2812/2918 30012KT CAVOK TX28/2915Z TN15/2904Z
TEMPO 2812/2818 29020G30KT
BECMG 2818/2820 29005KT
BECMG 2907/2909 12006KT